sensor_id;sensor_type;location;lat;lon;timestamp;P1;durP1;ratioP1;P2;durP2;ratioP2
75634;SDS011;64227;48.724;9.104;2023-07-29T00:00:34;0.50;;;0.50;;
75634;SDS011;64227;48.724;9.104;2023-07-29T00:02:59;0.80;;;0.65;;
75634;SDS011;64227;48.724;9.104;2023-07-29T00:05:24;0.50;;;0.50;;
75634;SDS011;64227;48.724;9.104;2023-07-29T00:07:50;0.93;;;0.60;;
75634;SDS011;64227;48.724;9.104;2023-07-29T00:10:15;0.57;;;0.50;;
75634;SDS011;64227;48.724;9.104;2023-07-29T00:12:41;0.75;;;0.60;;
75634;SDS011;64227;48.724;9.104;2023-07-29T00:15:10;0.63;;;0.50;;
75634;SDS011;64227;48.724;9.104;2023-07-29T00:17:36;0.70;;;0.60;;
75634;SDS011;64227;48.724;9.104;2023-07-29T00:20:01;0.93;;;0.80;;
75634;SDS011;64227;48.724;9.104;2023-07-29T00:22:27;0.70;;;0.60;;
75634;SDS011;64227;48.724;9.104;2023-07-29T00:24:52;1.30;;;0.73;;
75634;SDS011;64227;48.724;9.104;2023-07-29T00:27:20;0.80;;;0.70;;
75634;SDS011;64227;48.724;9.104;2023-07-29T00:29:45;0.55;;;0.55;;
75634;SDS011;64227;48.724;9.104;2023-07-29T00:32:10;0.70;;;0.60;;
75634;SDS011;64227;48.724;9.104;2023-07-29T00:34:35;1.40;;;0.60;;
75634;SDS011;64227;48.724;9.104;2023-07-29T00:37:01;0.57;;;0.57;;
75634;SDS011;64227;48.724;9.104;2023-07-29T00:39:26;0.63;;;0.60;;
75634;SDS011;64227;48.724;9.104;2023-07-29T00:41:51;1.52;;;0.60;;
75634;SDS011;64227;48.724;9.104;2023-07-29T00:44:17;0.80;;;0.60;;
75634;SDS011;64227;48.724;9.104;2023-07-29T00:46:42;0.60;;;0.60;;
75634;SDS011;64227;48.724;9.104;2023-07-29T00:49:09;0.40;;;0.40;;
75634;SDS011;64227;48.724;9.104;2023-07-29T00:51:34;0.70;;;0.63;;
75634;SDS011;64227;48.724;9.104;2023-07-29T00:54:02;0.68;;;0.60;;
75634;SDS011;64227;48.724;9.104;2023-07-29T00:56:27;1.08;;;0.60;;
75634;SDS011;64227;48.724;9.104;2023-07-29T00:58:53;0.45;;;0.45;;
75634;SDS011;64227;48.724;9.104;2023-07-29T01:01:24;1.05;;;0.60;;
75634;SDS011;64227;48.724;9.104;2023-07-29T01:03:49;1.08;;;0.73;;
75634;SDS011;64227;48.724;9.104;2023-07-29T01:06:34;0.88;;;0.65;;
75634;SDS011;64227;48.724;9.104;2023-07-29T01:09:09;0.98;;;0.60;;
75634;SDS011;64227;48.724;9.104;2023-07-29T01:11:59;1.00;;;0.90;;
75634;SDS011;64227;48.724;9.104;2023-07-29T01:17:28;0.80;;;0.65;;
75634;SDS011;64227;48.724;9.104;2023-07-29T01:20:04;0.90;;;0.70;;
75634;SDS011;64227;48.724;9.104;2023-07-29T01:22:33;2.53;;;1.00;;
75634;SDS011;64227;48.724;9.104;2023-07-29T01:24:59;0.98;;;0.90;;
75634;SDS011;64227;48.724;9.104;2023-07-29T01:27:25;0.80;;;0.80;;
75634;SDS011;64227;48.724;9.104;2023-07-29T01:29:51;0.80;;;0.65;;
75634;SDS011;64227;48.724;9.104;2023-07-29T01:32:23;0.90;;;0.73;;
75634;SDS011;64227;48.724;9.104;2023-07-29T01:35:01;0.93;;;0.80;;
75634;SDS011;64227;48.724;9.104;2023-07-29T01:37:30;1.00;;;0.90;;
75634;SDS011;64227;48.724;9.104;2023-07-29T01:39:57;1.10;;;0.90;;
75634;SDS011;64227;48.724;9.104;2023-07-29T01:42:24;2.53;;;0.63;;
75634;SDS011;64227;48.724;9.104;2023-07-29T01:44:49;3.25;;;0.93;;
75634;SDS011;64227;48.724;9.104;2023-07-29T01:47:15;0.80;;;0.80;;
75634;SDS011;64227;48.724;9.104;2023-07-29T01:49:41;1.17;;;0.90;;
75634;SDS011;64227;48.724;9.104;2023-07-29T01:52:06;1.50;;;1.00;;
75634;SDS011;64227;48.724;9.104;2023-07-29T01:54:31;0.95;;;0.70;;
75634;SDS011;64227;48.724;9.104;2023-07-29T01:56:57;0.93;;;0.80;;
75634;SDS011;64227;48.724;9.104;2023-07-29T01:59:22;0.70;;;0.60;;
75634;SDS011;64227;48.724;9.104;2023-07-29T02:01:47;0.93;;;0.82;;
75634;SDS011;64227;48.724;9.104;2023-07-29T02:04:13;1.63;;;0.90;;
75634;SDS011;64227;48.724;9.104;2023-07-29T02:06:39;0.93;;;0.63;;
75634;SDS011;64227;48.724;9.104;2023-07-29T02:09:04;0.60;;;0.60;;
75634;SDS011;64227;48.724;9.104;2023-07-29T02:11:30;0.70;;;0.70;;
75634;SDS011;64227;48.724;9.104;2023-07-29T02:13:55;0.70;;;0.60;;
75634;SDS011;64227;48.724;9.104;2023-07-29T02:16:21;0.90;;;0.70;;
75634;SDS011;64227;48.724;9.104;2023-07-29T02:18:47;0.45;;;0.45;;
75634;SDS011;64227;48.724;9.104;2023-07-29T02:21:13;1.77;;;0.85;;
75634;SDS011;64227;48.724;9.104;2023-07-29T02:23:38;1.23;;;0.60;;
75634;SDS011;64227;48.724;9.104;2023-07-29T02:26:03;1.23;;;1.13;;
75634;SDS011;64227;48.724;9.104;2023-07-29T02:28:29;0.75;;;0.73;;
75634;SDS011;64227;48.724;9.104;2023-07-29T02:33:46;0.77;;;0.70;;
75634;SDS011;64227;48.724;9.104;2023-07-29T02:36:12;0.60;;;0.60;;
75634;SDS011;64227;48.724;9.104;2023-07-29T02:38:38;1.92;;;0.57;;
75634;SDS011;64227;48.724;9.104;2023-07-29T02:41:04;1.20;;;1.00;;
75634;SDS011;64227;48.724;9.104;2023-07-29T02:43:29;1.13;;;0.90;;
75634;SDS011;64227;48.724;9.104;2023-07-29T02:45:55;1.85;;;0.70;;
75634;SDS011;64227;48.724;9.104;2023-07-29T02:48:20;2.50;;;0.98;;
75634;SDS011;64227;48.724;9.104;2023-07-29T02:50:45;0.80;;;0.80;;
75634;SDS011;64227;48.724;9.104;2023-07-29T02:53:11;0.60;;;0.60;;
75634;SDS011;64227;48.724;9.104;2023-07-29T02:55:39;1.58;;;0.90;;
75634;SDS011;64227;48.724;9.104;2023-07-29T02:58:04;0.88;;;0.80;;
75634;SDS011;64227;48.724;9.104;2023-07-29T03:00:31;0.80;;;0.75;;
75634;SDS011;64227;48.724;9.104;2023-07-29T03:02:56;0.80;;;0.80;;
75634;SDS011;64227;48.724;9.104;2023-07-29T03:05:22;1.63;;;1.02;;
75634;SDS011;64227;48.724;9.104;2023-07-29T03:07:47;2.20;;;1.15;;
75634;SDS011;64227;48.724;9.104;2023-07-29T03:10:12;3.28;;;1.05;;
75634;SDS011;64227;48.724;9.104;2023-07-29T03:12:39;0.68;;;0.60;;
75634;SDS011;64227;48.724;9.104;2023-07-29T03:15:04;2.08;;;0.85;;
75634;SDS011;64227;48.724;9.104;2023-07-29T03:17:30;2.05;;;0.90;;
75634;SDS011;64227;48.724;9.104;2023-07-29T03:19:55;1.00;;;0.90;;
75634;SDS011;64227;48.724;9.104;2023-07-29T03:22:21;2.30;;;0.85;;
75634;SDS011;64227;48.724;9.104;2023-07-29T03:24:46;0.82;;;0.80;;
75634;SDS011;64227;48.724;9.104;2023-07-29T03:27:11;1.73;;;1.08;;
75634;SDS011;64227;48.724;9.104;2023-07-29T03:29:37;1.33;;;1.08;;
75634;SDS011;64227;48.724;9.104;2023-07-29T03:32:02;0.90;;;0.90;;
75634;SDS011;64227;48.724;9.104;2023-07-29T03:34:28;3.33;;;1.15;;
75634;SDS011;64227;48.724;9.104;2023-07-29T03:36:53;4.25;;;1.10;;
75634;SDS011;64227;48.724;9.104;2023-07-29T03:39:19;7.43;;;1.23;;
75634;SDS011;64227;48.724;9.104;2023-07-29T03:41:44;2.40;;;0.98;;
75634;SDS011;64227;48.724;9.104;2023-07-29T03:44:09;2.10;;;1.40;;
75634;SDS011;64227;48.724;9.104;2023-07-29T03:46:34;1.20;;;1.00;;
75634;SDS011;64227;48.724;9.104;2023-07-29T03:49:00;3.15;;;0.88;;
75634;SDS011;64227;48.724;9.104;2023-07-29T03:51:25;1.52;;;1.08;;
75634;SDS011;64227;48.724;9.104;2023-07-29T03:53:50;0.85;;;0.80;;
75634;SDS011;64227;48.724;9.104;2023-07-29T03:56:16;1.00;;;0.90;;
75634;SDS011;64227;48.724;9.104;2023-07-29T03:58:41;2.25;;;1.20;;
75634;SDS011;64227;48.724;9.104;2023-07-29T04:01:08;1.90;;;0.90;;
75634;SDS011;64227;48.724;9.104;2023-07-29T04:03:34;2.30;;;1.20;;
75634;SDS011;64227;48.724;9.104;2023-07-29T04:05:59;2.05;;;1.40;;
75634;SDS011;64227;48.724;9.104;2023-07-29T04:08:25;2.83;;;1.30;;
75634;SDS011;64227;48.724;9.104;2023-07-29T04:10:51;2.33;;;1.30;;
75634;SDS011;64227;48.724;9.104;2023-07-29T04:13:16;3.33;;;1.30;;
75634;SDS011;64227;48.724;9.104;2023-07-29T04:15:42;2.40;;;1.60;;
75634;SDS011;64227;48.724;9.104;2023-07-29T04:18:07;2.10;;;1.48;;
75634;SDS011;64227;48.724;9.104;2023-07-29T04:20:32;3.35;;;1.15;;
75634;SDS011;64227;48.724;9.104;2023-07-29T04:22:58;3.47;;;1.38;;
75634;SDS011;64227;48.724;9.104;2023-07-29T04:25:24;4.70;;;1.58;;
75634;SDS011;64227;48.724;9.104;2023-07-29T04:27:49;1.42;;;1.30;;
75634;SDS011;64227;48.724;9.104;2023-07-29T04:30:14;2.60;;;1.40;;
75634;SDS011;64227;48.724;9.104;2023-07-29T04:32:40;2.10;;;1.33;;
75634;SDS011;64227;48.724;9.104;2023-07-29T04:35:07;1.90;;;1.35;;
75634;SDS011;64227;48.724;9.104;2023-07-29T04:37:33;1.95;;;1.27;;
75634;SDS011;64227;48.724;9.104;2023-07-29T04:39:58;1.70;;;1.23;;
75634;SDS011;64227;48.724;9.104;2023-07-29T04:42:23;3.95;;;1.70;;
75634;SDS011;64227;48.724;9.104;2023-07-29T04:44:49;2.00;;;1.40;;
75634;SDS011;64227;48.724;9.104;2023-07-29T04:47:14;3.92;;;1.83;;
75634;SDS011;64227;48.724;9.104;2023-07-29T04:49:39;2.47;;;1.92;;
75634;SDS011;64227;48.724;9.104;2023-07-29T04:52:05;3.08;;;1.67;;
75634;SDS011;64227;48.724;9.104;2023-07-29T04:54:30;3.35;;;1.83;;
75634;SDS011;64227;48.724;9.104;2023-07-29T04:56:56;2.30;;;1.60;;
75634;SDS011;64227;48.724;9.104;2023-07-29T04:59:21;5.93;;;1.60;;
75634;SDS011;64227;48.724;9.104;2023-07-29T05:01:46;2.65;;;1.50;;
75634;SDS011;64227;48.724;9.104;2023-07-29T05:04:12;3.88;;;1.70;;
75634;SDS011;64227;48.724;9.104;2023-07-29T05:06:37;2.85;;;1.50;;
75634;SDS011;64227;48.724;9.104;2023-07-29T05:09:15;3.13;;;1.67;;
75634;SDS011;64227;48.724;9.104;2023-07-29T05:11:42;1.80;;;1.40;;
75634;SDS011;64227;48.724;9.104;2023-07-29T05:14:12;2.95;;;1.50;;
75634;SDS011;64227;48.724;9.104;2023-07-29T05:16:38;2.67;;;1.83;;
75634;SDS011;64227;48.724;9.104;2023-07-29T05:19:03;2.63;;;1.77;;
75634;SDS011;64227;48.724;9.104;2023-07-29T05:21:29;4.65;;;1.60;;
75634;SDS011;64227;48.724;9.104;2023-07-29T05:23:54;3.00;;;1.52;;
75634;SDS011;64227;48.724;9.104;2023-07-29T05:26:20;2.80;;;2.13;;
75634;SDS011;64227;48.724;9.104;2023-07-29T05:28:45;2.22;;;1.42;;
75634;SDS011;64227;48.724;9.104;2023-07-29T05:31:10;3.72;;;1.85;;
75634;SDS011;64227;48.724;9.104;2023-07-29T05:33:36;3.50;;;1.60;;
75634;SDS011;64227;48.724;9.104;2023-07-29T05:36:01;1.98;;;1.35;;
75634;SDS011;64227;48.724;9.104;2023-07-29T05:38:26;2.28;;;1.60;;
75634;SDS011;64227;48.724;9.104;2023-07-29T05:40:52;1.33;;;1.23;;
75634;SDS011;64227;48.724;9.104;2023-07-29T05:43:17;1.95;;;1.55;;
75634;SDS011;64227;48.724;9.104;2023-07-29T05:45:42;3.05;;;1.85;;
75634;SDS011;64227;48.724;9.104;2023-07-29T05:48:08;2.22;;;1.63;;
75634;SDS011;64227;48.724;9.104;2023-07-29T05:50:33;2.05;;;1.60;;
75634;SDS011;64227;48.724;9.104;2023-07-29T05:52:58;3.25;;;1.48;;
75634;SDS011;64227;48.724;9.104;2023-07-29T05:55:24;1.75;;;1.40;;
75634;SDS011;64227;48.724;9.104;2023-07-29T05:57:49;2.03;;;1.73;;
75634;SDS011;64227;48.724;9.104;2023-07-29T06:00:14;2.42;;;1.70;;
75634;SDS011;64227;48.724;9.104;2023-07-29T06:02:40;2.30;;;1.58;;
75634;SDS011;64227;48.724;9.104;2023-07-29T06:05:08;2.45;;;1.60;;
75634;SDS011;64227;48.724;9.104;2023-07-29T06:07:33;2.03;;;1.65;;
75634;SDS011;64227;48.724;9.104;2023-07-29T06:09:59;1.50;;;1.40;;
75634;SDS011;64227;48.724;9.104;2023-07-29T06:12:25;4.03;;;1.92;;
75634;SDS011;64227;48.724;9.104;2023-07-29T06:14:50;3.53;;;1.58;;
75634;SDS011;64227;48.724;9.104;2023-07-29T06:17:15;1.55;;;1.40;;
75634;SDS011;64227;48.724;9.104;2023-07-29T06:19:41;3.22;;;1.92;;
75634;SDS011;64227;48.724;9.104;2023-07-29T06:22:06;3.63;;;1.70;;
75634;SDS011;64227;48.724;9.104;2023-07-29T06:24:31;2.80;;;1.50;;
75634;SDS011;64227;48.724;9.104;2023-07-29T06:26:57;1.20;;;1.02;;
75634;SDS011;64227;48.724;9.104;2023-07-29T06:29:23;1.75;;;1.27;;
75634;SDS011;64227;48.724;9.104;2023-07-29T06:31:48;1.52;;;1.17;;
75634;SDS011;64227;48.724;9.104;2023-07-29T06:34:13;1.77;;;1.35;;
75634;SDS011;64227;48.724;9.104;2023-07-29T06:36:39;1.42;;;1.20;;
75634;SDS011;64227;48.724;9.104;2023-07-29T06:39:04;1.80;;;1.20;;
75634;SDS011;64227;48.724;9.104;2023-07-29T06:41:29;1.23;;;1.10;;
75634;SDS011;64227;48.724;9.104;2023-07-29T06:43:55;2.42;;;1.00;;
75634;SDS011;64227;48.724;9.104;2023-07-29T06:46:21;1.20;;;1.10;;
75634;SDS011;64227;48.724;9.104;2023-07-29T06:48:46;1.42;;;1.08;;
75634;SDS011;64227;48.724;9.104;2023-07-29T06:51:11;2.65;;;1.13;;
75634;SDS011;64227;48.724;9.104;2023-07-29T06:53:37;2.05;;;1.20;;
75634;SDS011;64227;48.724;9.104;2023-07-29T06:56:02;2.22;;;1.30;;
75634;SDS011;64227;48.724;9.104;2023-07-29T06:58:28;2.10;;;1.40;;
75634;SDS011;64227;48.724;9.104;2023-07-29T07:00:53;3.03;;;1.33;;
75634;SDS011;64227;48.724;9.104;2023-07-29T07:03:18;3.38;;;1.20;;
75634;SDS011;64227;48.724;9.104;2023-07-29T07:05:44;1.38;;;1.25;;
75634;SDS011;64227;48.724;9.104;2023-07-29T07:08:09;1.77;;;1.40;;
75634;SDS011;64227;48.724;9.104;2023-07-29T07:10:34;2.45;;;1.10;;
75634;SDS011;64227;48.724;9.104;2023-07-29T07:12:59;1.42;;;1.08;;
75634;SDS011;64227;48.724;9.104;2023-07-29T07:15:25;1.00;;;0.90;;
75634;SDS011;64227;48.724;9.104;2023-07-29T07:17:51;1.30;;;0.75;;
75634;SDS011;64227;48.724;9.104;2023-07-29T07:20:16;1.42;;;0.90;;
75634;SDS011;64227;48.724;9.104;2023-07-29T07:22:42;0.90;;;0.80;;
75634;SDS011;64227;48.724;9.104;2023-07-29T07:25:07;2.10;;;1.00;;
75634;SDS011;64227;48.724;9.104;2023-07-29T07:27:33;1.90;;;1.00;;
75634;SDS011;64227;48.724;9.104;2023-07-29T07:29:58;1.33;;;1.00;;
75634;SDS011;64227;48.724;9.104;2023-07-29T07:32:23;1.85;;;1.10;;
75634;SDS011;64227;48.724;9.104;2023-07-29T07:34:48;1.63;;;1.00;;
75634;SDS011;64227;48.724;9.104;2023-07-29T07:37:14;2.95;;;1.25;;
75634;SDS011;64227;48.724;9.104;2023-07-29T07:39:39;1.45;;;1.20;;
75634;SDS011;64227;48.724;9.104;2023-07-29T07:42:05;1.48;;;0.88;;
75634;SDS011;64227;48.724;9.104;2023-07-29T07:44:30;1.33;;;1.10;;
75634;SDS011;64227;48.724;9.104;2023-07-29T07:46:55;1.85;;;1.20;;
75634;SDS011;64227;48.724;9.104;2023-07-29T07:49:21;1.67;;;1.35;;
75634;SDS011;64227;48.724;9.104;2023-07-29T07:51:47;1.27;;;1.10;;
75634;SDS011;64227;48.724;9.104;2023-07-29T07:54:12;1.27;;;0.82;;
75634;SDS011;64227;48.724;9.104;2023-07-29T07:56:37;0.93;;;0.82;;
75634;SDS011;64227;48.724;9.104;2023-07-29T07:59:02;1.95;;;0.98;;
75634;SDS011;64227;48.724;9.104;2023-07-29T08:01:28;2.10;;;0.90;;
75634;SDS011;64227;48.724;9.104;2023-07-29T08:03:59;1.10;;;1.00;;
75634;SDS011;64227;48.724;9.104;2023-07-29T08:06:24;0.73;;;0.70;;
75634;SDS011;64227;48.724;9.104;2023-07-29T08:08:49;2.40;;;0.98;;
75634;SDS011;64227;48.724;9.104;2023-07-29T08:11:15;1.27;;;1.00;;
75634;SDS011;64227;48.724;9.104;2023-07-29T08:13:40;1.30;;;0.98;;
75634;SDS011;64227;48.724;9.104;2023-07-29T08:16:05;1.33;;;0.65;;
75634;SDS011;64227;48.724;9.104;2023-07-29T08:18:31;0.80;;;0.65;;
75634;SDS011;64227;48.724;9.104;2023-07-29T08:20:57;0.70;;;0.70;;
75634;SDS011;64227;48.724;9.104;2023-07-29T08:23:24;0.68;;;0.63;;
75634;SDS011;64227;48.724;9.104;2023-07-29T08:25:53;0.70;;;0.60;;
75634;SDS011;64227;48.724;9.104;2023-07-29T08:28:21;0.85;;;0.75;;
75634;SDS011;64227;48.724;9.104;2023-07-29T08:30:46;1.17;;;0.90;;
75634;SDS011;64227;48.724;9.104;2023-07-29T08:33:11;1.67;;;0.80;;
75634;SDS011;64227;48.724;9.104;2023-07-29T08:35:37;0.93;;;0.82;;
75634;SDS011;64227;48.724;9.104;2023-07-29T08:38:02;1.45;;;0.90;;
75634;SDS011;64227;48.724;9.104;2023-07-29T08:40:29;1.35;;;0.90;;
75634;SDS011;64227;48.724;9.104;2023-07-29T08:42:55;0.73;;;0.65;;
75634;SDS011;64227;48.724;9.104;2023-07-29T08:45:21;1.52;;;0.80;;
75634;SDS011;64227;48.724;9.104;2023-07-29T08:47:47;1.10;;;0.80;;
75634;SDS011;64227;48.724;9.104;2023-07-29T08:50:14;0.60;;;0.60;;
75634;SDS011;64227;48.724;9.104;2023-07-29T08:52:40;0.82;;;0.70;;
75634;SDS011;64227;48.724;9.104;2023-07-29T08:55:07;1.00;;;0.70;;
75634;SDS011;64227;48.724;9.104;2023-07-29T08:57:33;0.60;;;0.60;;
75634;SDS011;64227;48.724;9.104;2023-07-29T08:59:58;0.80;;;0.60;;
75634;SDS011;64227;48.724;9.104;2023-07-29T09:02:23;1.25;;;0.80;;
75634;SDS011;64227;48.724;9.104;2023-07-29T09:04:49;2.38;;;0.68;;
75634;SDS011;64227;48.724;9.104;2023-07-29T09:07:14;0.70;;;0.70;;
75634;SDS011;64227;48.724;9.104;2023-07-29T09:09:40;1.02;;;0.73;;
75634;SDS011;64227;48.724;9.104;2023-07-29T09:12:05;0.95;;;0.90;;
75634;SDS011;64227;48.724;9.104;2023-07-29T09:14:32;1.50;;;0.98;;
75634;SDS011;64227;48.724;9.104;2023-07-29T09:16:57;1.65;;;0.80;;
75634;SDS011;64227;48.724;9.104;2023-07-29T09:19:25;1.65;;;0.93;;
75634;SDS011;64227;48.724;9.104;2023-07-29T09:21:51;1.48;;;0.90;;
75634;SDS011;64227;48.724;9.104;2023-07-29T09:24:20;0.70;;;0.70;;
75634;SDS011;64227;48.724;9.104;2023-07-29T09:26:49;0.80;;;0.70;;
75634;SDS011;64227;48.724;9.104;2023-07-29T09:29:15;0.80;;;0.80;;
75634;SDS011;64227;48.724;9.104;2023-07-29T09:31:40;2.75;;;0.80;;
75634;SDS011;64227;48.724;9.104;2023-07-29T09:34:06;2.17;;;0.80;;
75634;SDS011;64227;48.724;9.104;2023-07-29T09:36:31;1.38;;;0.80;;
75634;SDS011;64227;48.724;9.104;2023-07-29T09:38:58;0.60;;;0.60;;
75634;SDS011;64227;48.724;9.104;2023-07-29T09:41:25;1.52;;;0.90;;
75634;SDS011;64227;48.724;9.104;2023-07-29T09:43:58;0.85;;;0.80;;
75634;SDS011;64227;48.724;9.104;2023-07-29T09:46:24;0.70;;;0.70;;
75634;SDS011;64227;48.724;9.104;2023-07-29T09:48:53;0.80;;;0.80;;
75634;SDS011;64227;48.724;9.104;2023-07-29T09:51:20;1.58;;;0.90;;
75634;SDS011;64227;48.724;9.104;2023-07-29T09:53:46;1.20;;;1.02;;
75634;SDS011;64227;48.724;9.104;2023-07-29T09:56:12;0.80;;;0.75;;
75634;SDS011;64227;48.724;9.104;2023-07-29T09:58:41;0.73;;;0.73;;
75634;SDS011;64227;48.724;9.104;2023-07-29T10:01:08;2.13;;;0.73;;
75634;SDS011;64227;48.724;9.104;2023-07-29T10:03:34;1.67;;;0.90;;
75634;SDS011;64227;48.724;9.104;2023-07-29T10:06:01;2.03;;;0.90;;
75634;SDS011;64227;48.724;9.104;2023-07-29T10:08:28;0.70;;;0.70;;
75634;SDS011;64227;48.724;9.104;2023-07-29T10:10:56;1.45;;;1.00;;
75634;SDS011;64227;48.724;9.104;2023-07-29T10:13:25;1.40;;;0.82;;
75634;SDS011;64227;48.724;9.104;2023-07-29T10:15:51;0.88;;;0.80;;
75634;SDS011;64227;48.724;9.104;2023-07-29T10:18:16;1.27;;;1.17;;
75634;SDS011;64227;48.724;9.104;2023-07-29T10:20:43;2.67;;;1.10;;
75634;SDS011;64227;48.724;9.104;2023-07-29T10:23:09;1.05;;;0.90;;
75634;SDS011;64227;48.724;9.104;2023-07-29T10:25:38;2.65;;;0.90;;
75634;SDS011;64227;48.724;9.104;2023-07-29T10:28:07;2.10;;;0.95;;
75634;SDS011;64227;48.724;9.104;2023-07-29T10:30:33;1.15;;;0.73;;
75634;SDS011;64227;48.724;9.104;2023-07-29T10:32:59;1.85;;;1.10;;
75634;SDS011;64227;48.724;9.104;2023-07-29T10:35:27;2.80;;;1.42;;
75634;SDS011;64227;48.724;9.104;2023-07-29T10:37:52;1.48;;;0.70;;
75634;SDS011;64227;48.724;9.104;2023-07-29T10:40:18;2.20;;;1.00;;
75634;SDS011;64227;48.724;9.104;2023-07-29T10:43:06;2.58;;;1.02;;
75634;SDS011;64227;48.724;9.104;2023-07-29T10:45:41;1.10;;;1.00;;
75634;SDS011;64227;48.724;9.104;2023-07-29T10:48:11;1.33;;;0.70;;
75634;SDS011;64227;48.724;9.104;2023-07-29T10:50:37;1.83;;;1.08;;
75634;SDS011;64227;48.724;9.104;2023-07-29T10:53:02;1.00;;;0.90;;
75634;SDS011;64227;48.724;9.104;2023-07-29T10:55:28;0.90;;;0.90;;
75634;SDS011;64227;48.724;9.104;2023-07-29T10:58:08;1.10;;;0.98;;
75634;SDS011;64227;48.724;9.104;2023-07-29T11:00:36;1.17;;;1.08;;
75634;SDS011;64227;48.724;9.104;2023-07-29T11:03:03;3.08;;;0.90;;
75634;SDS011;64227;48.724;9.104;2023-07-29T11:13:26;1.42;;;0.82;;
75634;SDS011;64227;48.724;9.104;2023-07-29T11:15:52;1.02;;;0.90;;
75634;SDS011;64227;48.724;9.104;2023-07-29T11:18:18;1.92;;;1.00;;
75634;SDS011;64227;48.724;9.104;2023-07-29T11:20:45;0.93;;;0.90;;
75634;SDS011;64227;48.724;9.104;2023-07-29T11:23:11;1.02;;;0.98;;
75634;SDS011;64227;48.724;9.104;2023-07-29T11:25:36;1.08;;;0.98;;
75634;SDS011;64227;48.724;9.104;2023-07-29T11:28:01;1.15;;;1.08;;
75634;SDS011;64227;48.724;9.104;2023-07-29T11:30:27;1.13;;;0.95;;
75634;SDS011;64227;48.724;9.104;2023-07-29T11:32:54;2.40;;;1.13;;
75634;SDS011;64227;48.724;9.104;2023-07-29T11:35:20;0.82;;;0.82;;
75634;SDS011;64227;48.724;9.104;2023-07-29T11:37:46;2.13;;;1.15;;
75634;SDS011;64227;48.724;9.104;2023-07-29T11:40:16;0.77;;;0.77;;
75634;SDS011;64227;48.724;9.104;2023-07-29T11:42:42;1.25;;;0.95;;
75634;SDS011;64227;48.724;9.104;2023-07-29T11:45:08;2.50;;;1.20;;
75634;SDS011;64227;48.724;9.104;2023-07-29T11:47:35;1.92;;;1.05;;
75634;SDS011;64227;48.724;9.104;2023-07-29T11:50:02;1.25;;;0.82;;
75634;SDS011;64227;48.724;9.104;2023-07-29T11:52:30;3.15;;;1.40;;
75634;SDS011;64227;48.724;9.104;2023-07-29T11:54:57;1.55;;;1.20;;
75634;SDS011;64227;48.724;9.104;2023-07-29T11:57:22;1.15;;;1.00;;
75634;SDS011;64227;48.724;9.104;2023-07-29T11:59:48;0.98;;;0.90;;
75634;SDS011;64227;48.724;9.104;2023-07-29T12:02:15;1.30;;;1.20;;
75634;SDS011;64227;48.724;9.104;2023-07-29T12:04:42;1.15;;;1.00;;
75634;SDS011;64227;48.724;9.104;2023-07-29T12:07:08;1.27;;;1.17;;
75634;SDS011;64227;48.724;9.104;2023-07-29T12:09:34;1.73;;;0.90;;
75634;SDS011;64227;48.724;9.104;2023-07-29T12:12:00;1.10;;;1.00;;
75634;SDS011;64227;48.724;9.104;2023-07-29T12:14:30;1.10;;;1.00;;
75634;SDS011;64227;48.724;9.104;2023-07-29T12:16:55;1.27;;;1.17;;
75634;SDS011;64227;48.724;9.104;2023-07-29T12:19:21;1.38;;;1.20;;
75634;SDS011;64227;48.724;9.104;2023-07-29T12:21:47;1.20;;;1.10;;
75634;SDS011;64227;48.724;9.104;2023-07-29T12:24:13;2.28;;;1.10;;
75634;SDS011;64227;48.724;9.104;2023-07-29T12:26:39;1.30;;;1.20;;
75634;SDS011;64227;48.724;9.104;2023-07-29T12:29:15;1.17;;;1.08;;
75634;SDS011;64227;48.724;9.104;2023-07-29T12:31:41;1.15;;;1.05;;
75634;SDS011;64227;48.724;9.104;2023-07-29T12:34:07;1.30;;;1.00;;
75634;SDS011;64227;48.724;9.104;2023-07-29T12:36:43;1.17;;;1.08;;
75634;SDS011;64227;48.724;9.104;2023-07-29T12:39:19;1.35;;;1.25;;
75634;SDS011;64227;48.724;9.104;2023-07-29T12:41:45;1.15;;;1.08;;
75634;SDS011;64227;48.724;9.104;2023-07-29T12:44:11;1.23;;;1.10;;
75634;SDS011;64227;48.724;9.104;2023-07-29T12:46:37;2.45;;;1.30;;
75634;SDS011;64227;48.724;9.104;2023-07-29T12:49:02;1.48;;;1.15;;
75634;SDS011;64227;48.724;9.104;2023-07-29T12:51:27;1.30;;;1.10;;
75634;SDS011;64227;48.724;9.104;2023-07-29T12:53:53;4.50;;;1.10;;
75634;SDS011;64227;48.724;9.104;2023-07-29T12:56:19;1.13;;;1.02;;
75634;SDS011;64227;48.724;9.104;2023-07-29T12:58:44;2.50;;;0.90;;
75634;SDS011;64227;48.724;9.104;2023-07-29T13:01:09;1.88;;;1.25;;
75634;SDS011;64227;48.724;9.104;2023-07-29T13:03:37;1.58;;;0.93;;
75634;SDS011;64227;48.724;9.104;2023-07-29T13:06:03;1.30;;;1.00;;
75634;SDS011;64227;48.724;9.104;2023-07-29T13:08:29;1.20;;;1.10;;
75634;SDS011;64227;48.724;9.104;2023-07-29T13:10:55;1.10;;;0.93;;
75634;SDS011;64227;48.724;9.104;2023-07-29T13:13:20;1.42;;;1.10;;
75634;SDS011;64227;48.724;9.104;2023-07-29T13:15:46;1.00;;;0.93;;
75634;SDS011;64227;48.724;9.104;2023-07-29T13:18:11;2.17;;;1.10;;
75634;SDS011;64227;48.724;9.104;2023-07-29T13:20:36;1.42;;;0.90;;
75634;SDS011;64227;48.724;9.104;2023-07-29T13:23:02;0.98;;;0.90;;
75634;SDS011;64227;48.724;9.104;2023-07-29T13:25:27;1.42;;;1.20;;
75634;SDS011;64227;48.724;9.104;2023-07-29T13:27:53;1.42;;;1.10;;
75634;SDS011;64227;48.724;9.104;2023-07-29T13:30:18;1.13;;;1.10;;
75634;SDS011;64227;48.724;9.104;2023-07-29T13:32:43;1.05;;;1.02;;
75634;SDS011;64227;48.724;9.104;2023-07-29T13:35:09;1.25;;;0.93;;
75634;SDS011;64227;48.724;9.104;2023-07-29T13:37:34;1.77;;;1.10;;
75634;SDS011;64227;48.724;9.104;2023-07-29T13:39:59;1.10;;;0.90;;
75634;SDS011;64227;48.724;9.104;2023-07-29T13:42:25;1.20;;;1.10;;
75634;SDS011;64227;48.724;9.104;2023-07-29T13:44:50;2.75;;;1.00;;
75634;SDS011;64227;48.724;9.104;2023-07-29T13:47:15;1.52;;;1.10;;
75634;SDS011;64227;48.724;9.104;2023-07-29T13:49:41;1.23;;;0.90;;
75634;SDS011;64227;48.724;9.104;2023-07-29T13:52:06;1.10;;;1.00;;
75634;SDS011;64227;48.724;9.104;2023-07-29T13:54:31;1.20;;;1.10;;
75634;SDS011;64227;48.724;9.104;2023-07-29T13:56:57;1.25;;;1.15;;
75634;SDS011;64227;48.724;9.104;2023-07-29T13:59:23;1.58;;;1.23;;
75634;SDS011;64227;48.724;9.104;2023-07-29T14:01:48;1.38;;;1.20;;
75634;SDS011;64227;48.724;9.104;2023-07-29T14:04:13;1.20;;;1.10;;
75634;SDS011;64227;48.724;9.104;2023-07-29T14:06:38;1.20;;;1.10;;
75634;SDS011;64227;48.724;9.104;2023-07-29T14:09:04;2.10;;;1.07;;
75634;SDS011;64227;48.724;9.104;2023-07-29T14:11:29;1.45;;;1.35;;
75634;SDS011;64227;48.724;9.104;2023-07-29T14:13:54;1.20;;;1.00;;
75634;SDS011;64227;48.724;9.104;2023-07-29T14:16:20;1.38;;;1.17;;
75634;SDS011;64227;48.724;9.104;2023-07-29T14:18:45;2.08;;;1.30;;
75634;SDS011;64227;48.724;9.104;2023-07-29T14:21:10;1.38;;;1.13;;
75634;SDS011;64227;48.724;9.104;2023-07-29T14:23:36;1.40;;;1.00;;
75634;SDS011;64227;48.724;9.104;2023-07-29T14:26:01;1.40;;;1.10;;
75634;SDS011;64227;48.724;9.104;2023-07-29T14:28:26;1.50;;;1.20;;
75634;SDS011;64227;48.724;9.104;2023-07-29T14:30:51;1.35;;;1.20;;
75634;SDS011;64227;48.724;9.104;2023-07-29T14:33:17;1.73;;;1.15;;
75634;SDS011;64227;48.724;9.104;2023-07-29T14:35:42;2.13;;;1.02;;
75634;SDS011;64227;48.724;9.104;2023-07-29T14:38:07;1.23;;;1.13;;
75634;SDS011;64227;48.724;9.104;2023-07-29T14:40:33;1.40;;;1.30;;
75634;SDS011;64227;48.724;9.104;2023-07-29T14:42:58;1.10;;;1.00;;
75634;SDS011;64227;48.724;9.104;2023-07-29T14:45:23;2.72;;;1.33;;
75634;SDS011;64227;48.724;9.104;2023-07-29T14:47:49;1.38;;;1.25;;
75634;SDS011;64227;48.724;9.104;2023-07-29T14:50:15;2.60;;;1.10;;
75634;SDS011;64227;48.724;9.104;2023-07-29T14:52:40;1.00;;;0.90;;
75634;SDS011;64227;48.724;9.104;2023-07-29T14:55:05;1.38;;;1.13;;